Airport View

Enter AWOS ICAO identifier for current METAR.

ex. KFNL

KGJT 031553Z 14009KT 10SM CLR 26/00 A3018 RMK AO2 SLP142 T02610000

3 Jul 2020 16:40

Frequency: 118.550

Phone: 970-245-7881

Other Area AWOS: KAJZ - KRIL - KMTJ - KAIB

KGJT 031125Z 0312/0412 12010KT P6SM FEW120 FM031800 21008KT P6SM FEW120 FM032100 20010KT P6SM SCT120 BKN180 FM040200 11008KT P6SM FEW120 FM040600 10007KT P6SM FEW100